Time;durP1;ratioP1;P1;durP2;ratioP2;P2;SDS_P1;SDS_P2;PMS_P1;PMS_P2;Temp;Humidity;BMP_temperature;BMP_pressure;BME280_temperature;BME280_humidity;BME280_pressure;Samples;Min_cycle;Max_cycle;Signal;HPM_P1;HPM_P2
2023/09/01 00:00:42;;;;;;;14.45;10.80;;;14.00;99.90;;;;;;5038772;28;20054;-91
2023/09/01 00:03:08;;;;;;;14.52;10.85;;;14.00;99.90;;;;;;5035551;28;20495;-90
2023/09/01 00:05:34;;;;;;;17.73;10.40;;;14.00;99.90;;;;;;5048312;27;20033;-90
2023/09/01 00:08:02;;;;;;;20.75;10.02;;;14.00;99.90;;;;;;5049711;28;20458;-90
2023/09/01 00:10:28;;;;;;;13.88;8.98;;;14.00;99.90;;;;;;5050129;28;20112;-90
2023/09/01 00:12:55;;;;;;;14.80;9.15;;;14.00;99.90;;;;;;5053387;28;20037;-91
2023/09/01 00:15:21;;;;;;;12.73;8.45;;;14.00;99.90;;;;;;5052168;28;20033;-90
2023/09/01 00:17:47;;;;;;;14.40;9.48;;;14.00;99.90;;;;;;5052202;28;20125;-91
2023/09/01 00:20:13;;;;;;;13.80;8.32;;;14.00;99.90;;;;;;5051904;28;20033;-90
2023/09/01 00:22:38;;;;;;;13.85;8.90;;;14.00;99.90;;;;;;5053917;28;20025;-91
2023/09/01 00:25:05;;;;;;;13.75;9.43;;;14.00;99.90;;;;;;5043746;28;20064;-90
2023/09/01 00:27:30;;;;;;;15.98;9.30;;;13.90;99.90;;;;;;5045413;28;20234;-90
2023/09/01 00:29:56;;;;;;;16.42;10.00;;;13.90;99.90;;;;;;5031079;28;20178;-90
2023/09/01 00:32:22;;;;;;;14.55;9.82;;;13.90;99.90;;;;;;5045021;28;20024;-90
2023/09/01 00:34:56;;;;;;;14.00;9.45;;;13.90;99.90;;;;;;5038063;28;20024;-90
2023/09/01 00:37:22;;;;;;;17.92;9.85;;;13.90;99.90;;;;;;5051124;28;20040;-91
2023/09/01 00:39:47;;;;;;;16.08;10.43;;;13.80;99.90;;;;;;5051012;28;20021;-90
2023/09/01 00:42:13;;;;;;;16.92;9.77;;;13.90;99.90;;;;;;5050805;28;20393;-90
2023/09/01 00:44:38;;;;;;;16.25;10.18;;;13.90;99.90;;;;;;5050309;28;20041;-90
2023/09/01 00:47:06;;;;;;;17.48;10.20;;;13.90;99.90;;;;;;5041078;28;20038;-90
2023/09/01 00:49:32;;;;;;;16.08;10.93;;;13.90;99.90;;;;;;5047996;28;20029;-90
2023/09/01 00:51:59;;;;;;;14.95;10.90;;;13.90;99.90;;;;;;5043389;27;20017;-89
2023/09/01 00:54:25;;;;;;;17.42;11.07;;;13.90;99.90;;;;;;5031796;28;20030;-90
2023/09/01 00:56:53;;;;;;;21.63;12.68;;;13.90;99.90;;;;;;5037499;28;20113;-90
2023/09/01 00:59:20;;;;;;;21.83;12.27;;;13.90;99.90;;;;;;5051366;27;20526;-91
2023/09/01 01:01:46;;;;;;;20.00;12.32;;;13.90;99.90;;;;;;5052871;28;20364;-90
2023/09/01 01:04:14;;;;;;;17.98;11.55;;;13.90;99.90;;;;;;5052473;28;20017;-90
2023/09/01 01:06:39;;;;;;;18.98;11.63;;;13.90;99.90;;;;;;5050800;28;20040;-91
2023/09/01 01:09:22;;;;;;;16.70;11.45;;;13.90;99.90;;;;;;5031653;28;20032;-90
2023/09/01 01:12:14;;;;;;;21.85;13.63;;;13.90;99.90;;;;;;5045042;28;20026;-90
2023/09/01 01:14:51;;;;;;;21.42;12.57;;;13.80;99.90;;;;;;5040763;28;20033;-90
2023/09/01 01:17:18;;;;;;;22.38;13.32;;;13.80;99.90;;;;;;5047523;27;20038;-90
2023/09/01 01:19:50;;;;;;;23.52;13.57;;;13.80;99.90;;;;;;5043004;28;20071;-90
2023/09/01 01:22:31;;;;;;;21.20;12.68;;;13.80;99.90;;;;;;5046383;28;20029;-89
2023/09/01 01:24:57;;;;;;;21.80;12.57;;;13.80;99.90;;;;;;5031063;28;20021;-89
2023/09/01 01:27:23;;;;;;;20.70;11.55;;;13.80;99.90;;;;;;5044466;28;20499;-89
2023/09/01 01:29:49;;;;;;;18.67;10.63;;;13.80;99.90;;;;;;5030801;28;20041;-88
2023/09/01 01:32:15;;;;;;;21.45;11.18;;;13.90;99.90;;;;;;5047128;28;20017;-90
2023/09/01 01:34:49;;;;;;;18.42;10.25;;;13.80;99.90;;;;;;5049880;27;20081;-90
2023/09/01 01:37:30;;;;;;;19.30;11.27;;;13.80;99.90;;;;;;5050400;28;20041;-90
2023/09/01 01:39:59;;;;;;;19.67;10.90;;;13.80;99.90;;;;;;5050709;28;20079;-91
2023/09/01 01:42:29;;;;;;;20.25;11.13;;;13.90;99.90;;;;;;5049755;28;20037;-90
2023/09/01 01:44:58;;;;;;;25.67;11.45;;;13.80;99.90;;;;;;5049580;28;20037;-91
2023/09/01 01:47:23;;;;;;;20.40;12.07;;;13.80;99.90;;;;;;5050081;28;20078;-90
2023/09/01 01:49:49;;;;;;;19.00;10.73;;;13.80;99.90;;;;;;5049551;27;20017;-89
2023/09/01 01:52:15;;;;;;;19.42;11.45;;;13.80;99.90;;;;;;5050370;27;20033;-91
2023/09/01 01:54:41;;;;;;;19.90;10.63;;;13.80;99.90;;;;;;5050296;28;20029;-91
2023/09/01 01:57:10;;;;;;;18.40;10.55;;;13.80;99.90;;;;;;5050688;27;20127;-91
2023/09/01 01:59:36;;;;;;;21.40;11.32;;;13.80;99.90;;;;;;5050925;28;20029;-91
2023/09/01 02:02:05;;;;;;;20.77;12.82;;;13.80;99.90;;;;;;5042773;27;20036;-91
2023/09/01 02:04:31;;;;;;;24.92;13.23;;;13.80;99.90;;;;;;5042902;28;20116;-91
2023/09/01 02:06:57;;;;;;;20.48;13.02;;;13.80;99.90;;;;;;5050096;28;20029;-90
2023/09/01 02:09:23;;;;;;;24.05;12.52;;;13.80;99.90;;;;;;5049329;27;20486;-92
2023/09/01 02:11:48;;;;;;;27.80;13.80;;;13.80;99.90;;;;;;5035164;28;20021;-92
2023/09/01 02:14:14;;;;;;;23.08;12.50;;;13.80;99.90;;;;;;5049655;28;20025;-91
2023/09/01 02:16:40;;;;;;;23.05;13.13;;;13.80;99.90;;;;;;5049432;28;20025;-90
2023/09/01 02:19:09;;;;;;;24.70;13.00;;;13.80;99.90;;;;;;5049035;27;20029;-91
2023/09/01 02:21:35;;;;;;;23.45;12.80;;;13.80;99.90;;;;;;5035468;28;20034;-91
2023/09/01 02:24:00;;;;;;;22.48;12.98;;;13.80;99.90;;;;;;5048227;28;20092;-91
2023/09/01 02:26:26;;;;;;;22.25;13.02;;;13.80;99.90;;;;;;5049570;28;20025;-90
2023/09/01 02:28:52;;;;;;;27.33;13.50;;;13.80;99.90;;;;;;5049085;28;20029;-91
2023/09/01 02:31:18;;;;;;;20.27;12.30;;;13.80;99.90;;;;;;5049029;28;20421;-90
2023/09/01 02:33:44;;;;;;;23.80;11.80;;;13.80;99.90;;;;;;5047657;27;20025;-90
2023/09/01 02:36:28;;;;;;;19.67;11.60;;;13.80;99.90;;;;;;5049251;28;20064;-91
2023/09/01 02:38:54;;;;;;;19.33;11.15;;;13.80;99.90;;;;;;5049202;28;20040;-91
2023/09/01 02:41:21;;;;;;;19.08;11.75;;;13.80;99.90;;;;;;5049501;28;20043;-90
2023/09/01 02:43:47;;;;;;;22.85;12.65;;;13.80;99.90;;;;;;5048895;28;20022;-90
2023/09/01 02:46:13;;;;;;;21.17;11.38;;;13.80;99.90;;;;;;5048873;28;20451;-90
2023/09/01 02:48:39;;;;;;;21.38;12.05;;;13.80;99.90;;;;;;5048991;28;20379;-89
2023/09/01 02:51:06;;;;;;;23.98;12.52;;;13.80;99.90;;;;;;5049503;28;20407;-92
2023/09/01 02:53:32;;;;;;;21.55;10.77;;;13.80;99.90;;;;;;5050830;28;20024;-90
2023/09/01 02:55:58;;;;;;;23.52;11.73;;;13.80;99.90;;;;;;5051209;28;20071;-91
2023/09/01 02:58:25;;;;;;;23.00;11.98;;;13.80;99.90;;;;;;5055636;27;20029;-90
2023/09/01 03:00:51;;;;;;;23.98;12.05;;;13.80;99.90;;;;;;5060777;28;20112;-90
2023/09/01 03:03:19;;;;;;;28.90;12.57;;;13.70;99.90;;;;;;5058336;28;20021;-88
2023/09/01 03:05:46;;;;;;;26.52;12.73;;;13.80;99.90;;;;;;5056215;28;20032;-89
2023/09/01 03:08:11;;;;;;;24.95;12.35;;;13.70;99.90;;;;;;5059435;28;20029;-90
2023/09/01 03:10:38;;;;;;;24.20;12.00;;;13.80;99.90;;;;;;5054280;28;20040;-90
2023/09/01 03:13:04;;;;;;;24.05;12.27;;;13.70;99.90;;;;;;5050231;28;20097;-90
2023/09/01 03:15:30;;;;;;;27.02;11.77;;;13.70;99.90;;;;;;5048831;28;20077;-90
2023/09/01 03:17:56;;;;;;;24.30;12.52;;;13.70;99.90;;;;;;5048684;28;20029;-91
2023/09/01 03:20:23;;;;;;;23.63;12.35;;;13.70;99.90;;;;;;5048563;28;20025;-91
2023/09/01 03:22:49;;;;;;;22.73;10.88;;;13.70;99.90;;;;;;5048348;28;20033;-91
2023/09/01 03:25:15;;;;;;;25.33;11.90;;;13.80;99.90;;;;;;5048912;27;20029;-92
2023/09/01 03:27:40;;;;;;;22.88;11.45;;;13.80;99.90;;;;;;5048794;28;20032;-91
2023/09/01 03:30:07;;;;;;;23.52;12.00;;;13.70;99.90;;;;;;5048722;28;20029;-92
2023/09/01 03:32:33;;;;;;;24.67;11.23;;;13.70;99.90;;;;;;5048872;28;20432;-92
2023/09/01 03:34:59;;;;;;;22.95;11.48;;;13.70;99.90;;;;;;5048403;28;20025;-92
2023/09/01 03:37:25;;;;;;;24.77;11.60;;;13.80;99.90;;;;;;5048306;28;20065;-92
2023/09/01 03:39:51;;;;;;;17.50;9.60;;;13.80;99.90;;;;;;5048747;28;20025;-92
2023/09/01 03:42:17;;;;;;;20.92;11.25;;;13.80;99.90;;;;;;5048819;28;20064;-92
2023/09/01 03:44:43;;;;;;;21.95;11.18;;;13.70;99.90;;;;;;5048578;28;20102;-91
2023/09/01 03:47:09;;;;;;;24.65;11.85;;;13.70;99.90;;;;;;5052171;28;20037;-92
2023/09/01 03:49:35;;;;;;;22.73;10.18;;;13.80;99.90;;;;;;5051965;28;20026;-91
2023/09/01 03:52:01;;;;;;;23.25;11.43;;;13.80;99.90;;;;;;5054334;28;20048;-91
2023/09/01 03:54:27;;;;;;;22.00;10.27;;;13.80;99.90;;;;;;5065491;27;20025;-91
2023/09/01 03:56:53;;;;;;;22.30;10.95;;;13.80;99.90;;;;;;5059354;28;20037;-92
2023/09/01 03:59:19;;;;;;;22.52;10.80;;;13.80;99.90;;;;;;5052122;28;20029;-92
2023/09/01 04:01:46;;;;;;;22.08;10.48;;;13.80;99.90;;;;;;5051706;28;20119;-92
2023/09/01 04:04:12;;;;;;;20.70;11.15;;;13.80;99.90;;;;;;5051869;28;20017;-92
2023/09/01 04:06:39;;;;;;;19.05;9.60;;;13.90;99.90;;;;;;5051615;28;20028;-91
2023/09/01 04:09:05;;;;;;;22.25;11.00;;;13.80;99.90;;;;;;5051505;28;20028;-92
2023/09/01 04:11:31;;;;;;;21.10;10.20;;;13.80;99.90;;;;;;5051562;28;20021;-90
2023/09/01 04:13:57;;;;;;;19.48;10.35;;;13.80;99.90;;;;;;5051180;28;20025;-92
2023/09/01 04:16:24;;;;;;;19.23;10.30;;;13.80;99.90;;;;;;5051392;28;20033;-92
2023/09/01 04:18:49;;;;;;;20.90;9.57;;;13.80;99.90;;;;;;5052070;27;20032;-91
2023/09/01 04:21:15;;;;;;;27.98;11.35;;;13.90;99.90;;;;;;5051818;28;20028;-92
2023/09/01 04:23:40;;;;;;;21.85;10.25;;;13.80;99.90;;;;;;5051438;28;20076;-91
2023/09/01 04:26:07;;;;;;;20.67;9.63;;;13.90;99.90;;;;;;5051221;28;20029;-92
2023/09/01 04:28:33;;;;;;;12.05;7.40;;;13.90;99.90;;;;;;5051596;28;20017;-92
2023/09/01 04:31:10;;;;;;;15.88;8.60;;;13.90;99.90;;;;;;5051590;28;20058;-92
2023/09/01 04:33:36;;;;;;;15.43;9.77;;;13.80;99.90;;;;;;5051250;28;20033;-93
2023/09/01 04:36:05;;;;;;;18.48;8.88;;;13.80;99.90;;;;;;5051448;28;20052;-92
2023/09/01 04:38:31;;;;;;;20.55;8.85;;;13.90;99.90;;;;;;5050921;28;20031;-92
2023/09/01 04:40:58;;;;;;;16.75;8.98;;;13.90;99.90;;;;;;5050627;28;20021;-92
2023/09/01 04:43:27;;;;;;;19.40;9.02;;;13.80;99.90;;;;;;5050989;28;20032;-92
2023/09/01 04:45:57;;;;;;;17.42;9.65;;;13.80;99.90;;;;;;5050858;28;20487;-92
2023/09/01 04:48:23;;;;;;;19.10;9.93;;;13.80;99.90;;;;;;5051433;28;20061;-92
2023/09/01 04:50:49;;;;;;;12.18;6.00;;;13.90;99.90;;;;;;5050869;28;20061;-93
2023/09/01 04:53:15;;;;;;;15.15;8.02;;;13.80;99.90;;;;;;5050850;28;20053;-93
2023/09/01 04:55:42;;;;;;;13.57;7.50;;;13.80;99.90;;;;;;5050984;28;20025;-93
2023/09/01 04:58:07;;;;;;;14.18;7.68;;;13.80;99.90;;;;;;5049600;28;20052;-92
2023/09/01 05:00:34;;;;;;;16.42;7.78;;;13.90;99.90;;;;;;5050813;28;20456;-92
2023/09/01 05:03:00;;;;;;;13.38;7.90;;;13.90;99.90;;;;;;5050933;28;20017;-91
2023/09/01 05:05:26;;;;;;;14.75;8.63;;;13.90;99.90;;;;;;5055800;28;20052;-92
2023/09/01 05:07:52;;;;;;;15.40;9.18;;;13.90;99.90;;;;;;5054847;28;20029;-92
2023/09/01 05:10:18;;;;;;;17.00;8.93;;;13.90;99.90;;;;;;5050384;28;20046;-91
2023/09/01 05:12:43;;;;;;;13.13;8.93;;;13.90;99.90;;;;;;5050563;28;20027;-92
2023/09/01 05:15:09;;;;;;;17.02;9.00;;;13.90;99.90;;;;;;5050712;28;20057;-92
2023/09/01 05:17:35;;;;;;;15.20;8.70;;;13.90;99.90;;;;;;5046236;28;20116;-92
2023/09/01 05:20:01;;;;;;;17.08;9.13;;;13.90;99.90;;;;;;5039868;28;20112;-92
2023/09/01 05:22:27;;;;;;;14.30;8.27;;;13.90;99.90;;;;;;5030422;28;20029;-92
2023/09/01 05:24:53;;;;;;;14.48;8.35;;;13.90;99.90;;;;;;5030323;28;20028;-91
2023/09/01 05:27:19;;;;;;;16.95;8.20;;;13.90;99.90;;;;;;5030745;28;20022;-92
2023/09/01 05:29:52;;;;;;;13.60;8.18;;;13.90;99.90;;;;;;5030617;28;20135;-92
2023/09/01 05:32:18;;;;;;;15.10;8.75;;;13.90;99.90;;;;;;5034559;28;20382;-92
2023/09/01 05:34:44;;;;;;;16.70;8.07;;;13.80;99.90;;;;;;5050063;28;20036;-92
2023/09/01 05:37:13;;;;;;;17.33;9.18;;;13.80;99.90;;;;;;5050090;28;20037;-92
2023/09/01 05:39:43;;;;;;;17.55;9.27;;;13.80;99.90;;;;;;5049881;28;20050;-92
2023/09/01 05:42:09;;;;;;;13.00;8.35;;;13.80;99.90;;;;;;5049860;28;20053;-91
2023/09/01 05:44:36;;;;;;;16.48;8.98;;;13.80;99.90;;;;;;5050032;28;20045;-92
2023/09/01 05:47:05;;;;;;;17.65;9.20;;;13.90;99.90;;;;;;5049875;28;20036;-92
2023/09/01 05:49:32;;;;;;;20.60;9.88;;;13.90;99.90;;;;;;5029888;28;20029;-91
2023/09/01 05:51:58;;;;;;;16.50;8.48;;;13.90;99.90;;;;;;5035652;28;20071;-92
2023/09/01 05:54:24;;;;;;;14.25;8.70;;;13.90;99.90;;;;;;5040666;28;20037;-91
2023/09/01 05:56:50;;;;;;;15.82;8.55;;;13.90;99.90;;;;;;5038865;28;20029;-91
2023/09/01 05:59:15;;;;;;;18.38;9.30;;;13.90;99.90;;;;;;5042270;28;20090;-89
2023/09/01 06:01:42;;;;;;;18.75;10.20;;;13.90;99.90;;;;;;5041388;28;20048;-91
2023/09/01 06:04:08;;;;;;;15.50;8.73;;;13.90;99.90;;;;;;5038927;27;20021;-90
2023/09/01 06:06:35;;;;;;;15.80;8.85;;;13.90;99.90;;;;;;5038072;28;20021;-91
2023/09/01 06:09:04;;;;;;;18.15;9.13;;;13.90;99.90;;;;;;5037545;28;20029;-92
2023/09/01 06:11:30;;;;;;;15.50;9.18;;;13.90;99.90;;;;;;5039630;28;20536;-91
2023/09/01 06:13:56;;;;;;;15.25;8.63;;;13.90;99.90;;;;;;5038114;28;20025;-89
2023/09/01 06:16:22;;;;;;;16.10;9.20;;;13.90;99.90;;;;;;5039548;28;20116;-90
2023/09/01 06:18:48;;;;;;;16.63;9.05;;;13.90;99.90;;;;;;5039807;28;20117;-92
2023/09/01 06:21:17;;;;;;;19.48;10.00;;;14.00;99.90;;;;;;5040686;28;20088;-92
2023/09/01 06:23:46;;;;;;;16.05;9.23;;;13.90;99.90;;;;;;5032284;28;20095;-92
2023/09/01 06:26:13;;;;;;;21.77;11.15;;;14.00;99.90;;;;;;5029917;28;20616;-91
2023/09/01 06:28:42;;;;;;;21.83;10.15;;;14.00;99.90;;;;;;5029752;28;20029;-90
2023/09/01 06:31:12;;;;;;;16.92;9.80;;;14.00;99.90;;;;;;5029772;28;20112;-92
2023/09/01 06:33:44;;;;;;;17.33;9.90;;;14.00;99.90;;;;;;5029567;28;20025;-90
2023/09/01 06:36:12;;;;;;;15.82;8.93;;;14.00;99.90;;;;;;5030216;28;20185;-92
2023/09/01 06:38:39;;;;;;;16.25;9.35;;;14.00;99.90;;;;;;5030574;28;20557;-92
2023/09/01 06:41:04;;;;;;;19.98;10.75;;;14.10;99.90;;;;;;5037320;28;20508;-90
2023/09/01 06:43:30;;;;;;;16.50;9.30;;;14.10;99.90;;;;;;5043192;28;20036;-91
2023/09/01 06:45:57;;;;;;;21.92;9.88;;;14.10;99.90;;;;;;5048409;28;20060;-91
2023/09/01 06:48:24;;;;;;;18.52;10.65;;;14.10;99.90;;;;;;5048820;27;20064;-91
2023/09/01 06:50:49;;;;;;;15.82;8.55;;;14.10;99.90;;;;;;5048571;28;20097;-91
2023/09/01 06:53:15;;;;;;;21.40;10.35;;;14.10;99.90;;;;;;5048839;28;20060;-91
2023/09/01 06:55:41;;;;;;;16.25;9.43;;;14.10;99.90;;;;;;5048779;28;20416;-92
2023/09/01 06:58:07;;;;;;;18.85;9.68;;;14.10;99.90;;;;;;5076002;28;20072;-92
2023/09/01 07:00:33;;;;;;;16.88;9.85;;;14.10;99.90;;;;;;5134365;28;20035;-93
2023/09/01 07:02:59;;;;;;;16.80;9.30;;;14.10;99.90;;;;;;5133030;27;20019;-93
2023/09/01 07:05:24;;;;;;;19.95;9.68;;;14.20;99.90;;;;;;5145427;27;20134;-92
2023/09/01 07:07:52;;;;;;;19.30;9.45;;;14.20;99.90;;;;;;5149602;27;20015;-91
2023/09/01 07:10:19;;;;;;;14.95;8.85;;;14.30;99.90;;;;;;5140628;27;20076;-92
2023/09/01 07:12:44;;;;;;;14.65;8.68;;;14.30;99.90;;;;;;5133070;27;20031;-92
2023/09/01 07:15:10;;;;;;;16.13;8.57;;;14.30;99.90;;;;;;5133015;27;20034;-92
2023/09/01 07:17:36;;;;;;;15.80;9.27;;;14.30;99.90;;;;;;5133149;27;20046;-91
2023/09/01 07:20:03;;;;;;;16.25;8.75;;;14.30;99.90;;;;;;5133109;27;20039;-91
2023/09/01 07:22:29;;;;;;;15.32;8.93;;;14.30;99.90;;;;;;5061139;27;20475;-91
2023/09/01 07:24:54;;;;;;;14.30;6.65;;;14.30;99.90;;;;;;5033639;28;20071;-92
2023/09/01 07:27:20;;;;;;;14.30;8.85;;;14.30;99.90;;;;;;5044021;28;20045;-91
2023/09/01 07:29:48;;;;;;;14.80;8.55;;;14.30;99.90;;;;;;5041820;28;20047;-91
2023/09/01 07:32:14;;;;;;;15.05;8.13;;;14.30;99.90;;;;;;5040890;28;20037;-91
2023/09/01 07:34:40;;;;;;;13.98;7.95;;;14.40;99.90;;;;;;5039220;28;20028;-91
2023/09/01 07:37:07;;;;;;;18.65;8.13;;;14.40;99.90;;;;;;5038193;28;20032;-91
2023/09/01 07:39:34;;;;;;;16.83;8.85;;;14.40;99.90;;;;;;5041841;28;20622;-91
2023/09/01 07:41:59;;;;;;;17.30;8.55;;;14.40;99.90;;;;;;5050744;28;20050;-91
2023/09/01 07:44:25;;;;;;;24.80;10.13;;;14.40;99.90;;;;;;5051285;28;20041;-92
2023/09/01 07:46:50;;;;;;;15.13;7.43;;;14.40;99.90;;;;;;5047579;27;20036;-91
2023/09/01 07:49:16;;;;;;;19.17;8.30;;;14.50;99.90;;;;;;5031578;28;20022;-90
2023/09/01 07:51:43;;;;;;;15.10;7.40;;;14.50;99.90;;;;;;5039431;28;20031;-91
2023/09/01 07:54:08;;;;;;;12.75;7.53;;;14.50;99.90;;;;;;5041049;28;20032;-91
2023/09/01 07:56:35;;;;;;;15.35;7.82;;;14.50;99.90;;;;;;5050311;28;20040;-91
2023/09/01 07:59:01;;;;;;;16.48;8.10;;;14.50;99.90;;;;;;5051535;28;20036;-91
2023/09/01 08:01:28;;;;;;;15.05;8.18;;;14.50;99.90;;;;;;5047040;28;20017;-92
2023/09/01 08:03:54;;;;;;;14.93;7.78;;;14.60;99.90;;;;;;5042095;28;20025;-91
2023/09/01 08:06:20;;;;;;;16.00;7.63;;;14.60;99.90;;;;;;5039161;28;20029;-90
2023/09/01 08:08:45;;;;;;;17.38;8.13;;;14.70;99.90;;;;;;5046642;28;20372;-92
2023/09/01 08:11:11;;;;;;;17.83;8.32;;;14.70;99.90;;;;;;5045083;28;20399;-91
2023/09/01 08:13:37;;;;;;;20.60;8.10;;;14.80;99.90;;;;;;5031737;28;20033;-91
2023/09/01 08:16:05;;;;;;;13.63;7.28;;;14.80;99.90;;;;;;5030980;28;20076;-91
2023/09/01 08:18:32;;;;;;;20.33;8.77;;;14.80;99.90;;;;;;5031200;28;20037;-90
2023/09/01 08:21:02;;;;;;;13.73;7.60;;;14.90;99.90;;;;;;5031423;28;20022;-91
2023/09/01 08:23:27;;;;;;;18.85;9.00;;;14.90;99.90;;;;;;5032299;28;20026;-91
2023/09/01 08:25:53;;;;;;;17.90;9.23;;;15.00;99.90;;;;;;5034335;28;20112;-90
2023/09/01 08:28:18;;;;;;;15.80;8.13;;;15.00;99.90;;;;;;5040160;28;20629;-90
2023/09/01 08:30:45;;;;;;;17.02;8.98;;;15.00;99.90;;;;;;5040515;28;20065;-89
2023/09/01 08:33:11;;;;;;;16.58;8.68;;;15.00;99.90;;;;;;5036901;28;20396;-91
2023/09/01 08:35:36;;;;;;;16.55;8.40;;;15.10;99.90;;;;;;5037191;28;20018;-90
2023/09/01 08:38:02;;;;;;;14.52;8.13;;;15.20;99.90;;;;;;5038100;28;20025;-91
2023/09/01 08:40:28;;;;;;;13.32;7.45;;;15.20;99.90;;;;;;5041546;28;20028;-91
2023/09/01 08:42:56;;;;;;;15.48;7.88;;;15.30;99.90;;;;;;5039760;28;20053;-91
2023/09/01 08:45:23;;;;;;;14.30;7.63;;;15.20;99.90;;;;;;5040781;28;20050;-91
2023/09/01 08:47:49;;;;;;;14.35;7.85;;;15.30;99.90;;;;;;5039788;28;20017;-91
2023/09/01 08:50:16;;;;;;;13.82;7.70;;;15.40;99.90;;;;;;5039334;28;20025;-90
2023/09/01 08:52:44;;;;;;;13.07;7.45;;;15.40;99.90;;;;;;5043918;28;20114;-92
2023/09/01 08:55:14;;;;;;;12.13;7.47;;;15.40;99.90;;;;;;5050677;28;20054;-91
2023/09/01 08:57:39;;;;;;;12.77;7.57;;;15.50;99.90;;;;;;5050883;28;20123;-90
2023/09/01 09:00:09;;;;;;;13.00;7.82;;;15.50;99.90;;;;;;5058111;28;20491;-91
2023/09/01 09:02:42;;;;;;;15.83;8.63;;;15.50;99.90;;;;;;5050566;28;20135;-91
2023/09/01 09:05:13;;;;;;;15.10;8.20;;;15.50;99.90;;;;;;5055240;28;20039;-91
2023/09/01 09:07:39;;;;;;;14.63;8.80;;;15.50;99.90;;;;;;5048989;28;20026;-90
2023/09/01 09:10:06;;;;;;;14.70;8.30;;;15.60;99.90;;;;;;5043762;28;20025;-91
2023/09/01 09:12:38;;;;;;;14.32;7.82;;;15.70;99.90;;;;;;5043402;28;20060;-91
2023/09/01 09:15:05;;;;;;;15.30;7.50;;;15.70;99.90;;;;;;5038917;28;20021;-91
2023/09/01 09:17:44;;;;;;;12.32;6.60;;;15.80;99.90;;;;;;5042663;28;20396;-91
2023/09/01 09:20:12;;;;;;;9.38;5.50;;;15.90;99.90;;;;;;5048150;27;20032;-91
2023/09/01 09:22:59;;;;;;;9.23;5.93;;;16.00;99.90;;;;;;5039321;28;20026;-92
2023/09/01 09:25:28;;;;;;;9.25;5.47;;;16.10;99.90;;;;;;5052317;27;20092;-93
2023/09/01 09:27:56;;;;;;;8.00;4.97;;;16.20;99.90;;;;;;5043396;28;20037;-94
2023/09/01 09:30:25;;;;;;;7.78;4.75;;;16.30;99.90;;;;;;5033652;28;20021;-93
2023/09/01 09:33:04;;;;;;;6.25;4.25;;;16.30;99.90;;;;;;5035810;28;20391;-92
2023/09/01 09:35:32;;;;;;;10.68;5.25;;;16.40;99.90;;;;;;5040357;27;20013;-94
2023/09/01 09:37:59;;;;;;;10.88;6.25;;;16.50;99.90;;;;;;5038537;28;20041;-92
2023/09/01 09:40:25;;;;;;;14.90;7.40;;;16.50;99.90;;;;;;5044761;28;20021;-93
2023/09/01 09:42:51;;;;;;;10.82;6.97;;;16.50;99.90;;;;;;5041944;28;20030;-92
2023/09/01 09:45:28;;;;;;;12.20;7.18;;;16.50;99.90;;;;;;5042375;28;20041;-90
2023/09/01 09:48:02;;;;;;;9.98;6.18;;;16.50;99.90;;;;;;5038122;28;20030;-91
2023/09/01 09:50:29;;;;;;;10.82;6.60;;;16.50;99.90;;;;;;5039602;28;20108;-90
2023/09/01 09:52:58;;;;;;;9.88;6.28;;;16.50;99.90;;;;;;5039207;28;20021;-92
2023/09/01 09:55:28;;;;;;;8.98;6.20;;;16.40;99.90;;;;;;5032064;28;20030;-91
2023/09/01 09:58:08;;;;;;;9.45;5.60;;;16.40;99.90;;;;;;5039134;28;20037;-92
2023/09/01 10:00:57;;;;;;;8.52;5.70;;;16.40;99.90;;;;;;5037371;28;20466;-92
2023/09/01 10:03:28;;;;;;;13.43;6.57;;;16.40;99.90;;;;;;5039473;28;20518;-92
2023/09/01 10:05:54;;;;;;;9.68;6.00;;;16.30;99.90;;;;;;5046186;28;20050;-91
2023/09/01 10:08:23;;;;;;;11.13;6.80;;;16.30;99.90;;;;;;5047067;28;20117;-90
2023/09/01 10:10:51;;;;;;;11.55;6.63;;;16.30;99.90;;;;;;5042344;28;20018;-90
2023/09/01 10:13:19;;;;;;;12.80;7.40;;;16.30;99.90;;;;;;5036276;28;20491;-92
2023/09/01 10:15:46;;;;;;;12.18;7.53;;;16.40;99.90;;;;;;5039108;28;20029;-90
2023/09/01 10:18:12;;;;;;;13.95;7.70;;;16.40;99.90;;;;;;5039459;28;20029;-89
2023/09/01 10:20:41;;;;;;;15.75;7.30;;;16.50;99.90;;;;;;5038291;28;20486;-88
2023/09/01 10:23:08;;;;;;;13.63;6.90;;;16.50;99.90;;;;;;5044514;28;20043;-89
2023/09/01 10:25:34;;;;;;;13.25;6.65;;;16.60;99.90;;;;;;5039848;28;20384;-90
2023/09/01 10:28:13;;;;;;;10.77;7.38;;;16.80;99.90;;;;;;5038141;28;20021;-92
2023/09/01 10:30:45;;;;;;;14.45;6.05;;;16.80;99.90;;;;;;5040389;28;20025;-92
2023/09/01 10:36:13;;;;;;;9.15;5.05;;;17.00;99.90;;;;;;5042272;28;20526;-91
2023/09/01 10:38:40;;;;;;;11.02;5.00;;;17.10;99.90;;;;;;5042389;28;20025;-89
2023/09/01 10:41:06;;;;;;;5.90;3.55;;;17.20;99.90;;;;;;5038972;28;20048;-87
2023/09/01 10:43:35;;;;;;;7.10;3.60;;;17.30;99.90;;;;;;5039557;28;20032;-89
2023/09/01 10:46:13;;;;;;;5.88;3.22;;;17.50;99.90;;;;;;5038988;28;20041;-91
2023/09/01 10:48:59;;;;;;;6.43;2.85;;;17.70;99.90;;;;;;5039243;28;20104;-91
2023/09/01 10:51:31;;;;;;;4.93;2.95;;;17.90;99.90;;;;;;5032600;28;20034;-91
2023/09/01 10:54:20;;;;;;;4.18;2.90;;;18.10;99.90;;;;;;5037853;28;20048;-90
2023/09/01 10:56:56;;;;;;;5.20;3.07;;;18.20;99.90;;;;;;5032853;28;20056;-90
2023/09/01 10:59:37;;;;;;;7.07;3.35;;;18.30;99.90;;;;;;5035136;28;20029;-89
2023/09/01 11:02:19;;;;;;;6.40;3.28;;;18.40;99.90;;;;;;5049525;28;20048;-89
2023/09/01 11:04:46;;;;;;;7.10;3.28;;;18.40;99.90;;;;;;5035845;28;20033;-90
2023/09/01 11:07:12;;;;;;;6.63;4.28;;;18.40;99.90;;;;;;5038532;28;20025;-90
2023/09/01 11:09:44;;;;;;;6.93;3.97;;;18.40;99.90;;;;;;5036669;28;20026;-89
2023/09/01 11:12:11;;;;;;;6.15;3.85;;;18.40;99.90;;;;;;5047472;28;20040;-89
2023/09/01 11:14:55;;;;;;;5.88;3.80;;;18.40;99.90;;;;;;5043299;28;20119;-90
2023/09/01 11:17:38;;;;;;;9.18;5.05;;;18.40;99.90;;;;;;5040187;28;20040;-89
2023/09/01 11:20:09;;;;;;;8.10;4.72;;;18.40;99.90;;;;;;5050458;28;20026;-90
2023/09/01 11:22:37;;;;;;;6.13;4.45;;;18.30;99.90;;;;;;5034523;28;20024;-90
2023/09/01 11:25:04;;;;;;;7.28;4.63;;;18.30;99.90;;;;;;5037132;28;20018;-90
2023/09/01 11:27:30;;;;;;;10.00;5.30;;;18.20;99.90;;;;;;5037204;28;20024;-91
2023/09/01 11:29:56;;;;;;;9.70;4.95;;;18.20;99.90;;;;;;5038915;28;20555;-90
2023/09/01 11:32:26;;;;;;;11.15;5.13;;;18.20;99.90;;;;;;5043465;28;20115;-89
2023/09/01 11:34:58;;;;;;;10.90;6.07;;;18.20;99.90;;;;;;5046305;28;20037;-90
2023/09/01 11:37:37;;;;;;;9.55;6.35;;;18.20;99.90;;;;;;5048469;28;20033;-89
2023/09/01 11:40:07;;;;;;;9.77;6.10;;;18.10;99.90;;;;;;5048716;28;20048;-92
2023/09/01 11:42:34;;;;;;;14.27;6.68;;;18.20;99.90;;;;;;5048831;28;20024;-90
2023/09/01 11:45:03;;;;;;;11.63;6.93;;;18.20;99.90;;;;;;5048202;28;20045;-91
2023/09/01 11:47:30;;;;;;;11.80;7.20;;;18.20;99.90;;;;;;5048338;28;20033;-90
2023/09/01 11:49:55;;;;;;;15.95;8.07;;;18.20;99.90;;;;;;5034998;28;20021;-89
2023/09/01 11:52:23;;;;;;;15.07;8.27;;;18.30;99.90;;;;;;5038406;28;20029;-91
2023/09/01 11:54:49;;;;;;;18.05;8.05;;;18.30;99.90;;;;;;5037945;28;20022;-91
2023/09/01 11:57:15;;;;;;;17.80;8.70;;;18.20;99.90;;;;;;5037913;28;20105;-91
2023/09/01 11:59:48;;;;;;;17.60;7.70;;;18.20;99.90;;;;;;5042060;28;20484;-91
2023/09/01 12:02:17;;;;;;;9.23;5.75;;;18.20;99.90;;;;;;5038858;28;20026;-91
2023/09/01 12:04:50;;;;;;;11.73;7.40;;;18.20;99.90;;;;;;5039821;28;20017;-92
2023/09/01 12:07:23;;;;;;;13.23;7.50;;;18.20;99.90;;;;;;5040120;28;20045;-90
2023/09/01 12:09:49;;;;;;;11.95;7.57;;;18.30;99.90;;;;;;5043273;28;20025;-89
2023/09/01 12:12:16;;;;;;;13.75;6.53;;;18.30;99.90;;;;;;5044393;28;20025;-89
2023/09/01 12:14:41;;;;;;;10.65;6.15;;;18.20;99.90;;;;;;5048087;28;20022;-90
2023/09/01 12:17:18;;;;;;;11.98;6.15;;;18.20;99.90;;;;;;5043862;28;20094;-90
2023/09/01 12:19:51;;;;;;;10.55;5.38;;;18.20;99.90;;;;;;5040551;28;20045;-88
2023/09/01 12:22:18;;;;;;;8.23;5.05;;;18.20;99.90;;;;;;5047315;28;20045;-89
2023/09/01 12:24:57;;;;;;;10.70;6.22;;;18.30;99.90;;;;;;5042489;28;20020;-89
2023/09/01 12:27:23;;;;;;;11.45;6.28;;;18.30;99.90;;;;;;5044036;28;20078;-90
2023/09/01 12:29:49;;;;;;;9.23;5.95;;;18.30;99.90;;;;;;5046075;28;20028;-89
2023/09/01 12:32:16;;;;;;;9.98;5.65;;;18.20;99.90;;;;;;5040064;28;20632;-88
2023/09/01 12:34:42;;;;;;;11.63;6.72;;;18.30;99.90;;;;;;5045234;28;20032;-89
2023/09/01 12:37:10;;;;;;;11.00;6.72;;;18.40;99.90;;;;;;5045254;28;20040;-90
2023/09/01 12:39:37;;;;;;;9.10;5.28;;;18.50;99.90;;;;;;5042417;28;20099;-89
2023/09/01 12:42:03;;;;;;;11.48;5.90;;;18.50;99.90;;;;;;5043272;28;20021;-89